Time;durP1;ratioP1;P1;durP2;ratioP2;P2;SDS_P1;SDS_P2;PMS_P1;PMS_P2;Temp;Humidity;BMP_temperature;BMP_pressure;BME280_temperature;BME280_humidity;BME280_pressure;Samples;Min_cycle;Max_cycle;Signal;HPM_P1;HPM_P2
2020/12/23 00:00:11;;;;;;;38.83;22.40;;;;;;;8.98;66.21;99284.91;4967302;28;20492;-80
2020/12/23 00:02:43;;;;;;;58.03;27.48;;;;;;;8.51;67.42;99275.69;4965948;28;20050;-81
2020/12/23 00:05:15;;;;;;;53.95;25.85;;;;;;;8.46;68.11;99277.44;4976079;28;20052;-82
2020/12/23 00:07:44;;;;;;;47.10;26.30;;;;;;;8.40;68.09;99271.38;4963653;28;20129;-82
2020/12/23 00:10:12;;;;;;;57.25;25.63;;;;;;;8.78;67.38;99269.41;4933936;28;20036;-81
2020/12/23 00:12:41;;;;;;;48.33;28.95;;;;;;;8.59;67.78;99267.81;4967655;28;20114;-80
2020/12/23 00:15:08;;;;;;;44.63;24.95;;;;;;;8.77;67.74;99270.31;4965399;28;20529;-82
2020/12/23 00:17:35;;;;;;;50.95;26.67;;;;;;;8.79;66.40;99273.75;4965809;28;20058;-81
2020/12/23 00:20:03;;;;;;;48.22;27.63;;;;;;;8.50;67.71;99267.88;4965329;28;20062;-85
2020/12/23 00:22:30;;;;;;;55.65;26.42;;;;;;;8.76;67.30;99273.78;4953677;28;20123;-88
2020/12/23 00:24:58;;;;;;;47.30;27.33;;;;;;;8.63;67.11;99270.38;4958148;28;20531;-90
2020/12/23 00:27:25;;;;;;;47.38;26.80;;;;;;;8.50;68.14;99266.13;4948770;28;20162;-80
2020/12/23 00:29:54;;;;;;;46.25;27.38;;;;;;;8.87;66.16;99271.13;4952410;28;20046;-81
2020/12/23 00:32:21;;;;;;;50.33;28.10;;;;;;;8.84;66.16;99261.56;4948664;28;20109;-81
2020/12/23 00:34:50;;;;;;;47.25;26.20;;;;;;;9.05;66.00;99263.16;4933859;28;20050;-80
2020/12/23 00:37:16;;;;;;;50.65;26.63;;;;;;;8.36;67.53;99259.28;4947090;28;20114;-81
2020/12/23 00:39:43;;;;;;;40.15;25.17;;;;;;;8.60;67.90;99244.38;4961469;28;20034;-82
2020/12/23 00:42:09;;;;;;;46.05;26.65;;;;;;;8.66;66.48;99251.28;4950966;28;20046;-81
2020/12/23 00:44:37;;;;;;;44.65;26.15;;;;;;;8.96;66.30;99238.03;4953475;28;20072;-79
2020/12/23 00:47:09;;;;;;;50.47;26.13;;;;;;;8.16;68.68;99225.50;4965792;28;20042;-80
2020/12/23 00:49:37;;;;;;;55.10;28.55;;;;;;;8.16;69.09;99222.91;4950995;28;20046;-81
2020/12/23 00:52:06;;;;;;;45.03;26.80;;;;;;;8.10;69.07;99204.75;4947720;28;20118;-83
2020/12/23 00:54:35;;;;;;;44.85;25.40;;;;;;;7.84;70.59;99203.13;4978737;28;20576;-81
2020/12/23 00:57:03;;;;;;;37.50;23.67;;;;;;;8.00;69.94;99213.47;4961766;28;20039;-81
2020/12/23 00:59:31;;;;;;;48.03;24.27;;;;;;;7.74;70.26;99222.25;4966728;28;20046;-84
2020/12/23 01:02:02;;;;;;;45.83;23.95;;;;;;;7.77;70.01;99226.59;4965731;28;20063;-83
2020/12/23 01:04:31;;;;;;;44.33;21.75;;;;;;;8.22;68.51;99221.16;4963036;28;20101;-82
2020/12/23 01:06:58;;;;;;;34.13;19.83;;;;;;;7.98;69.79;99210.00;4947990;28;20051;-79
2020/12/23 01:09:25;;;;;;;40.17;22.55;;;;;;;8.29;68.57;99209.88;4969005;28;20039;-82
2020/12/23 01:11:52;;;;;;;43.42;22.38;;;;;;;8.35;68.20;99206.34;4966406;28;20047;-80
2020/12/23 01:14:20;;;;;;;36.33;19.20;;;;;;;8.95;66.88;99217.19;4968743;28;20201;-83
2020/12/23 01:16:50;;;;;;;24.70;14.85;;;;;;;8.68;67.26;99221.75;4964568;28;20802;-87
2020/12/23 01:19:17;;;;;;;30.65;17.60;;;;;;;9.19;65.71;99222.19;4971053;28;20089;-80
2020/12/23 01:21:47;;;;;;;28.55;16.60;;;;;;;7.96;68.89;99214.38;4967528;28;20043;-85
2020/12/23 01:24:13;;;;;;;28.55;17.92;;;;;;;7.63;70.25;99211.00;4971615;28;20061;-83
2020/12/23 01:26:41;;;;;;;32.75;15.73;;;;;;;8.59;67.23;99215.72;4951281;28;20091;-86
2020/12/23 01:29:09;;;;;;;30.35;16.67;;;;;;;8.23;67.62;99212.47;4950283;28;20133;-80
2020/12/23 01:31:41;;;;;;;32.88;18.50;;;;;;;8.48;67.47;99218.44;4952411;28;20081;-84
2020/12/23 01:34:10;;;;;;;26.30;15.93;;;;;;;8.87;66.21;99221.63;4936941;28;20061;-84
2020/12/23 01:36:38;;;;;;;27.60;16.40;;;;;;;9.14;65.79;99219.63;4957723;28;20137;-83
2020/12/23 01:39:10;;;;;;;28.92;15.95;;;;;;;9.42;65.02;99220.22;4969545;28;20807;-82
2020/12/23 01:41:37;;;;;;;25.27;14.32;;;;;;;9.39;64.87;99219.41;4960784;28;20067;-85
2020/12/23 01:44:06;;;;;;;26.25;15.45;;;;;;;9.62;64.29;99214.78;4980031;28;20043;-85
2020/12/23 01:46:36;;;;;;;27.70;15.13;;;;;;;9.41;64.16;99218.47;4951990;28;20037;-83
2020/12/23 01:49:06;;;;;;;21.02;13.38;;;;;;;9.17;64.96;99213.50;4947126;28;20047;-83
2020/12/23 01:51:34;;;;;;;28.65;13.77;;;;;;;9.21;64.64;99215.22;4969396;28;20043;-84
2020/12/23 01:54:01;;;;;;;23.63;12.88;;;;;;;9.36;63.93;99216.81;4958607;28;20047;-83
2020/12/23 01:56:29;;;;;;;24.13;12.40;;;;;;;9.30;64.27;99204.72;4951614;28;20062;-84
2020/12/23 01:58:56;;;;;;;22.70;12.70;;;;;;;8.80;66.10;99205.16;4968782;28;20050;-85
2020/12/23 02:01:27;;;;;;;26.95;13.05;;;;;;;8.52;66.60;99203.66;4968504;28;20787;-84
2020/12/23 02:03:56;;;;;;;27.75;13.43;;;;;;;8.84;66.00;99203.41;4967865;28;20087;-85
2020/12/23 02:06:34;;;;;;;27.45;13.57;;;;;;;8.50;67.31;99202.78;4955653;28;20047;-84
2020/12/23 02:09:03;;;;;;;23.73;13.57;;;;;;;8.97;66.09;99207.66;4965225;28;20117;-84
2020/12/23 02:11:31;;;;;;;26.30;14.50;;;;;;;8.61;66.88;99206.19;4968064;28;20045;-85
2020/12/23 02:13:58;;;;;;;27.58;16.33;;;;;;;8.88;65.94;99195.53;4967120;28;20046;-84
2020/12/23 02:16:25;;;;;;;29.52;15.88;;;;;;;9.12;65.28;99192.72;4969965;28;20042;-84
2020/12/23 02:18:53;;;;;;;31.35;19.27;;;;;;;8.89;65.79;99194.66;4963022;28;20158;-85
2020/12/23 02:21:24;;;;;;;36.95;21.05;;;;;;;8.04;68.52;99179.63;4947546;28;20055;-83
2020/12/23 02:23:54;;;;;;;41.67;20.65;;;;;;;8.06;68.59;99171.81;4964572;28;20386;-84
2020/12/23 02:26:24;;;;;;;31.08;20.10;;;;;;;7.88;68.77;99170.19;4962123;28;20078;-84
2020/12/23 02:28:52;;;;;;;36.67;19.65;;;;;;;8.20;68.61;99167.41;4951751;28;20172;-83
2020/12/23 02:31:22;;;;;;;34.58;19.52;;;;;;;8.25;68.03;99165.59;4972548;28;20074;-82
2020/12/23 02:33:49;;;;;;;37.78;19.65;;;;;;;7.86;69.73;99170.16;4972397;28;20066;-84
2020/12/23 02:36:17;;;;;;;36.15;20.98;;;;;;;8.50;67.57;99172.41;4971349;28;20444;-84
2020/12/23 02:38:44;;;;;;;39.88;23.38;;;;;;;8.49;67.69;99167.25;4968726;28;20043;-83
2020/12/23 02:41:12;;;;;;;35.10;21.38;;;;;;;8.33;67.42;99166.47;4971925;28;20062;-83
2020/12/23 02:43:40;;;;;;;31.25;19.92;;;;;;;8.13;68.54;99163.97;4969060;28;20100;-83
2020/12/23 02:46:08;;;;;;;31.05;19.63;;;;;;;7.81;68.91;99171.97;4953990;28;20416;-84
2020/12/23 02:48:35;;;;;;;36.75;20.10;;;;;;;8.32;67.78;99168.22;4971079;28;20049;-83
2020/12/23 02:51:02;;;;;;;38.17;18.33;;;;;;;8.62;66.86;99161.06;4975699;28;20049;-84
2020/12/23 02:53:28;;;;;;;36.00;19.23;;;;;;;7.98;68.00;99143.25;4953359;28;20042;-83
2020/12/23 02:55:55;;;;;;;36.83;20.58;;;;;;;8.08;68.26;99149.25;4963292;28;20126;-83
2020/12/23 02:58:21;;;;;;;35.65;19.20;;;;;;;8.29;67.68;99143.94;4977938;28;20043;-84
2020/12/23 03:00:47;;;;;;;30.13;18.95;;;;;;;7.98;67.65;99144.97;4965919;28;20134;-84
2020/12/23 03:03:15;;;;;;;29.85;18.55;;;;;;;8.57;66.12;99145.47;4967185;28;20438;-83
2020/12/23 03:05:42;;;;;;;26.05;18.05;;;;;;;8.82;65.88;99142.66;4966845;28;20141;-84
2020/12/23 03:08:08;;;;;;;27.55;18.15;;;;;;;8.75;65.48;99137.50;4964317;28;20035;-84
2020/12/23 03:10:35;;;;;;;33.50;17.10;;;;;;;9.34;64.01;99138.63;4969704;28;20039;-83
2020/12/23 03:13:02;;;;;;;23.77;17.63;;;;;;;9.50;63.37;99134.09;4966632;28;20081;-83
2020/12/23 03:15:28;;;;;;;27.83;18.52;;;;;;;8.79;65.46;99138.31;4970845;28;20133;-83
2020/12/23 03:17:55;;;;;;;25.33;17.55;;;;;;;9.00;65.09;99132.06;4970561;28;20051;-84
2020/12/23 03:20:23;;;;;;;29.38;16.92;;;;;;;8.83;65.02;99134.81;4969915;28;20530;-83
2020/12/23 03:22:53;;;;;;;28.87;17.90;;;;;;;9.39;64.04;99126.41;4974574;28;20047;-83
2020/12/23 03:25:19;;;;;;;31.10;17.08;;;;;;;9.41;63.79;99128.97;4965891;28;20081;-83
2020/12/23 03:27:46;;;;;;;33.72;18.85;;;;;;;9.15;64.71;99122.34;4965460;28;20102;-83
2020/12/23 03:30:12;;;;;;;32.78;19.50;;;;;;;9.02;64.90;99115.50;4968886;28;20085;-83
2020/12/23 03:32:39;;;;;;;27.77;18.13;;;;;;;9.51;63.44;99118.44;4980001;28;20497;-84
2020/12/23 03:35:17;;;;;;;31.50;18.83;;;;;;;9.61;63.51;99117.44;4968218;28;20101;-84
2020/12/23 03:37:43;;;;;;;31.65;19.77;;;;;;;9.29;63.58;99103.94;4962109;28;20045;-83
2020/12/23 03:40:10;;;;;;;32.15;17.85;;;;;;;9.53;63.57;99103.63;4969120;28;20038;-83
2020/12/23 03:42:37;;;;;;;33.13;18.83;;;;;;;9.54;62.78;99099.28;4967901;28;20137;-83
2020/12/23 03:45:03;;;;;;;29.23;18.80;;;;;;;9.64;63.15;99090.44;4967263;28;20454;-82
2020/12/23 03:47:30;;;;;;;27.20;18.50;;;;;;;9.45;63.27;99095.03;4966726;28;20050;-82
2020/12/23 03:49:57;;;;;;;29.15;18.05;;;;;;;9.65;63.01;99092.16;4967798;28;20066;-81
2020/12/23 03:52:24;;;;;;;25.92;17.45;;;;;;;9.49;63.71;99088.91;4983613;28;20072;-82
2020/12/23 03:54:51;;;;;;;29.40;16.63;;;;;;;9.72;62.98;99085.13;4978857;28;20109;-82
2020/12/23 03:57:18;;;;;;;28.65;19.05;;;;;;;9.84;62.39;99088.44;4965025;28;20631;-81
2020/12/23 03:59:44;;;;;;;28.33;18.10;;;;;;;9.79;62.75;99078.94;4964687;28;20066;-83
2020/12/23 04:02:11;;;;;;;27.13;16.75;;;;;;;9.87;62.39;99083.19;4962370;28;20066;-83
2020/12/23 04:04:37;;;;;;;30.83;16.17;;;;;;;9.88;62.40;99077.06;4963229;28;20517;-81
2020/12/23 04:07:04;;;;;;;31.77;17.20;;;;;;;9.73;62.85;99073.81;4968483;28;20078;-83
2020/12/23 04:09:31;;;;;;;28.25;17.15;;;;;;;9.41;63.98;99082.06;4967742;28;20077;-81
2020/12/23 04:11:57;;;;;;;28.08;15.77;;;;;;;8.89;65.84;99085.25;4970766;28;20129;-83
2020/12/23 04:14:24;;;;;;;26.20;17.10;;;;;;;9.32;63.79;99082.16;4971285;28;20089;-83
2020/12/23 04:16:51;;;;;;;29.45;17.52;;;;;;;9.44;63.99;99082.91;4964303;28;20043;-83
2020/12/23 04:19:21;;;;;;;26.02;15.13;;;;;;;9.43;63.76;99082.91;4961336;28;20045;-82
2020/12/23 04:21:48;;;;;;;25.92;15.23;;;;;;;9.31;63.96;99088.25;4979294;28;20078;-83
2020/12/23 04:24:14;;;;;;;25.20;14.52;;;;;;;9.22;64.58;99088.38;4962203;28;20063;-83
2020/12/23 04:26:41;;;;;;;28.50;15.07;;;;;;;9.44;63.67;99085.50;4965315;28;20088;-84
2020/12/23 04:29:09;;;;;;;20.95;14.40;;;;;;;9.61;63.23;99078.31;4952027;28;20055;-83
2020/12/23 04:31:35;;;;;;;21.05;14.32;;;;;;;9.60;63.02;99083.53;4963603;28;20105;-81
2020/12/23 04:34:02;;;;;;;26.27;14.27;;;;;;;9.34;63.71;99083.03;4963701;28;20138;-83
2020/12/23 04:36:28;;;;;;;26.52;14.88;;;;;;;9.39;63.28;99076.88;4974949;28;20467;-81
2020/12/23 04:38:54;;;;;;;28.50;14.55;;;;;;;9.16;64.49;99069.31;4950099;28;20053;-82
2020/12/23 04:41:22;;;;;;;25.33;14.88;;;;;;;8.81;65.27;99075.81;4969409;28;20053;-83
2020/12/23 04:43:50;;;;;;;35.22;15.27;;;;;;;9.15;64.41;99077.19;4965787;28;20058;-82
2020/12/23 04:46:23;;;;;;;22.17;15.27;;;;;;;9.28;64.23;99083.09;4982348;28;20100;-83
2020/12/23 04:48:57;;;;;;;32.45;16.90;;;;;;;9.35;63.96;99075.16;4966123;28;20039;-83
2020/12/23 04:51:32;;;;;;;33.13;15.27;;;;;;;8.93;64.87;99081.75;4964969;28;20034;-83
2020/12/23 04:54:01;;;;;;;24.50;14.82;;;;;;;9.17;64.52;99072.78;4963506;28;20058;-83
2020/12/23 04:56:29;;;;;;;24.77;15.52;;;;;;;9.31;64.15;99081.31;4963210;28;20043;-82
2020/12/23 04:58:57;;;;;;;31.55;15.65;;;;;;;9.25;64.07;99078.78;4964906;28;20042;-81
2020/12/23 05:01:24;;;;;;;27.88;15.48;;;;;;;8.98;64.47;99077.34;4947417;28;20749;-83
2020/12/23 05:03:54;;;;;;;23.55;15.40;;;;;;;9.11;64.77;99078.09;4966203;28;20113;-83
2020/12/23 05:06:22;;;;;;;26.13;15.70;;;;;;;9.28;63.71;99076.13;4965291;28;20038;-83
2020/12/23 05:08:49;;;;;;;29.35;16.15;;;;;;;9.57;63.38;99073.16;4966839;28;20065;-83
2020/12/23 05:11:16;;;;;;;27.60;16.65;;;;;;;9.27;64.09;99071.81;4946373;28;20038;-83
2020/12/23 05:13:43;;;;;;;24.70;17.08;;;;;;;9.52;63.70;99069.75;4961900;28;20504;-82
2020/12/23 05:16:21;;;;;;;30.23;18.48;;;;;;;9.29;64.21;99057.03;4963729;28;20489;-82
2020/12/23 05:18:48;;;;;;;30.80;17.33;;;;;;;9.51;63.63;99047.16;4967521;28;20047;-82
2020/12/23 05:21:15;;;;;;;27.23;16.52;;;;;;;9.36;64.17;99039.53;4961304;28;20113;-82
2020/12/23 05:23:48;;;;;;;29.58;18.05;;;;;;;9.46;63.83;99046.34;4961864;28;20228;-81
2020/12/23 05:26:15;;;;;;;29.60;18.08;;;;;;;9.39;64.21;99037.78;4961371;28;20450;-82
2020/12/23 05:28:43;;;;;;;26.70;17.48;;;;;;;9.23;64.74;99037.97;4951108;28;20043;-82
2020/12/23 05:31:15;;;;;;;23.45;16.25;;;;;;;8.91;65.51;99038.38;4966513;28;20133;-82
2020/12/23 05:33:44;;;;;;;33.25;18.15;;;;;;;8.47;65.87;99044.91;4964812;28;20047;-82
2020/12/23 05:36:18;;;;;;;26.08;16.40;;;;;;;8.67;66.86;99035.16;4965542;28;20560;-83
2020/12/23 05:38:45;;;;;;;29.95;16.92;;;;;;;8.49;67.46;99035.31;4965751;28;20093;-83
2020/12/23 05:41:14;;;;;;;32.38;17.92;;;;;;;8.83;66.20;99038.44;4963811;28;20110;-83
2020/12/23 05:43:44;;;;;;;38.22;19.42;;;;;;;8.64;66.84;99036.91;4967800;28;20665;-83
2020/12/23 05:46:12;;;;;;;38.35;17.90;;;;;;;8.35;67.74;99041.53;4965351;28;20386;-83
2020/12/23 05:48:40;;;;;;;32.45;18.88;;;;;;;9.02;65.80;99033.88;4975436;28;20038;-83
2020/12/23 05:51:10;;;;;;;34.47;18.55;;;;;;;8.98;65.96;99037.41;4975515;28;20127;-82
2020/12/23 05:53:38;;;;;;;30.27;17.13;;;;;;;8.95;65.46;99027.91;4967344;28;20056;-83
2020/12/23 05:56:08;;;;;;;33.80;17.75;;;;;;;9.36;64.85;99027.38;4977433;28;20126;-83
2020/12/23 05:58:37;;;;;;;26.88;15.77;;;;;;;8.45;67.10;99037.97;4963939;28;21470;-83
2020/12/23 06:01:08;;;;;;;24.52;16.38;;;;;;;8.36;67.35;99025.03;4966584;28;20047;-83
2020/12/23 06:03:54;;;;;;;27.08;15.35;;;;;;;8.65;67.05;99021.28;4955209;28;20530;-83
2020/12/23 06:06:23;;;;;;;23.55;16.17;;;;;;;8.82;67.17;99018.50;4954232;28;20050;-83
2020/12/23 06:08:53;;;;;;;30.13;15.63;;;;;;;8.53;67.54;99023.16;4980763;28;20038;-83
2020/12/23 06:11:45;;;;;;;35.17;14.48;;;;;;;7.89;70.26;99016.75;4967713;28;20043;-83
2020/12/23 06:14:21;;;;;;;26.35;15.57;;;;;;;8.89;67.00;99009.72;4986782;28;20066;-83
2020/12/23 06:16:49;;;;;;;26.40;15.75;;;;;;;8.53;68.17;99004.94;4967791;28;20142;-84
2020/12/23 06:19:19;;;;;;;21.15;14.52;;;;;;;8.58;67.38;99003.16;4960308;28;20039;-81
2020/12/23 06:21:47;;;;;;;26.23;16.17;;;;;;;8.40;69.10;99004.16;4981038;28;20034;-83
2020/12/23 06:24:13;;;;;;;26.45;15.85;;;;;;;8.16;69.40;99006.97;4968409;28;20600;-83
2020/12/23 06:26:44;;;;;;;31.00;15.95;;;;;;;8.63;68.22;98999.59;4968866;28;20078;-82
2020/12/23 06:29:13;;;;;;;32.88;15.88;;;;;;;8.72;67.76;99006.47;4962941;28;20054;-83
2020/12/23 06:31:40;;;;;;;25.08;14.30;;;;;;;8.20;69.74;98993.91;4973390;28;20062;-83
2020/12/23 06:34:07;;;;;;;27.92;15.18;;;;;;;8.19;69.55;98992.22;4983626;28;20039;-83
2020/12/23 06:36:35;;;;;;;23.65;15.52;;;;;;;8.38;68.77;98985.13;4967521;28;20101;-85
2020/12/23 06:39:22;;;;;;;41.58;13.73;;;;;;;8.26;69.49;98980.84;4986741;28;20049;-83
2020/12/23 06:42:02;;;;;;;31.98;13.70;;;;;;;7.70;71.27;98978.75;4966022;28;20119;-84
2020/12/23 06:44:45;;;;;;;23.25;13.93;;;;;;;7.69;72.56;98977.00;4982403;28;20474;-83
2020/12/23 06:47:16;;;;;;;22.65;14.75;;;;;;;8.52;69.50;98974.56;4966930;28;20498;-83
2020/12/23 06:49:48;;;;;;;22.23;14.93;;;;;;;8.13;70.38;98978.38;4964578;28;20066;-83
2020/12/23 06:52:29;;;;;;;25.87;16.43;;;;;;;8.51;69.18;98965.03;4969824;28;20042;-83
2020/12/23 06:55:05;;;;;;;26.75;16.83;;;;;;;8.82;68.63;98971.63;4966960;28;20372;-83
2020/12/23 06:57:40;;;;;;;24.02;16.10;;;;;;;8.77;68.42;98967.34;4968120;28;20409;-84
2020/12/23 07:00:14;;;;;;;27.83;16.88;;;;;;;8.28;69.36;98970.44;4985030;28;20114;-84
2020/12/23 07:02:45;;;;;;;27.33;18.17;;;;;;;8.10;70.49;98968.88;4964371;28;20031;-83
2020/12/23 07:05:30;;;;;;;29.80;18.20;;;;;;;7.89;70.95;98967.31;4968812;28;20126;-83
2020/12/23 07:08:02;;;;;;;31.00;18.77;;;;;;;8.72;68.72;98964.81;4979578;28;20047;-83
2020/12/23 07:10:31;;;;;;;26.45;17.65;;;;;;;8.41;70.39;98971.19;4952145;28;20038;-82
2020/12/23 07:12:58;;;;;;;30.10;20.13;;;;;;;8.37;70.23;98967.78;4966926;28;20039;-83
2020/12/23 07:15:35;;;;;;;25.02;17.90;;;;;;;8.63;69.14;98964.91;4969050;28;20458;-83
2020/12/23 07:18:02;;;;;;;27.13;17.40;;;;;;;8.65;68.60;98968.34;4963984;28;20047;-82
2020/12/23 07:20:40;;;;;;;26.83;17.73;;;;;;;8.94;67.77;98970.59;4971813;28;20141;-83
2020/12/23 07:23:11;;;;;;;24.70;18.67;;;;;;;9.19;67.30;98966.81;4965340;28;20050;-83
2020/12/23 07:25:49;;;;;;;25.40;17.67;;;;;;;8.88;67.52;98965.44;4988743;28;20045;-83
2020/12/23 07:28:19;;;;;;;26.20;16.02;;;;;;;8.70;68.63;98971.75;4952841;28;20039;-83
2020/12/23 07:30:47;;;;;;;21.52;16.52;;;;;;;9.06;67.87;98963.50;4954396;28;20034;-82
2020/12/23 07:33:19;;;;;;;19.05;14.70;;;;;;;8.97;67.40;98965.38;4965425;28;20043;-82
2020/12/23 07:35:51;;;;;;;18.95;13.65;;;;;;;8.77;68.45;98972.56;4965007;28;20054;-81
2020/12/23 07:38:19;;;;;;;18.63;13.80;;;;;;;9.11;67.38;98971.25;4979651;28;20050;-83
2020/12/23 07:40:53;;;;;;;15.88;11.98;;;;;;;8.63;68.63;98962.31;4968808;28;20201;-83
2020/12/23 07:43:22;;;;;;;15.32;11.57;;;;;;;8.62;68.86;98963.19;4966723;28;20070;-82
2020/12/23 07:45:49;;;;;;;13.88;10.73;;;;;;;8.84;68.42;98963.78;4967544;28;20502;-82
2020/12/23 07:48:20;;;;;;;18.98;10.45;;;;;;;8.65;68.67;98965.72;4963245;28;20055;-83
2020/12/23 07:50:49;;;;;;;14.13;10.60;;;;;;;8.81;68.29;98966.44;4963139;28;20046;-83
2020/12/23 07:53:17;;;;;;;10.98;9.18;;;;;;;8.22;70.13;98967.91;4971039;28;20099;-83
2020/12/23 07:55:49;;;;;;;14.90;10.55;;;;;;;8.11;71.29;98962.78;4967694;28;20047;-82
2020/12/23 07:58:16;;;;;;;;;;;;;;;7.98;71.30;98952.50;4964293;28;20466;-82
2020/12/23 08:00:48;;;;;;;13.45;10.18;;;;;;;8.22;70.79;98960.97;4966717;28;19932;-81
2020/12/23 08:03:27;;;;;;;15.18;10.40;;;;;;;7.96;70.83;98964.69;4981979;28;20043;-80
2020/12/23 08:06:05;;;;;;;17.20;10.20;;;;;;;7.89;71.64;98964.72;4963461;28;20051;-81
2020/12/23 08:08:38;;;;;;;15.27;10.55;;;;;;;8.33;70.99;98950.47;4954949;28;20054;-82
2020/12/23 08:11:14;;;;;;;15.27;10.02;;;;;;;8.52;70.13;98945.94;4985396;28;20133;-83
2020/12/23 08:13:42;;;;;;;12.80;9.95;;;;;;;8.85;68.88;98942.06;4966863;28;20450;-82
2020/12/23 08:16:11;;;;;;;12.02;8.35;;;;;;;8.16;70.08;98936.72;4964988;28;20169;-85
2020/12/23 08:18:39;;;;;;;12.95;9.70;;;;;;;8.67;69.94;98940.56;4965598;28;20502;-83
2020/12/23 08:21:14;;;;;;;11.93;8.80;;;;;;;9.14;67.85;98934.72;4951498;28;20061;-82
2020/12/23 08:23:42;;;;;;;13.63;9.27;;;;;;;8.81;68.63;98936.03;4946015;28;20444;-82
2020/12/23 08:26:11;;;;;;;11.93;9.65;;;;;;;8.96;68.04;98945.41;4962299;28;20158;-83
2020/12/23 08:28:41;;;;;;;9.98;8.60;;;;;;;8.87;68.21;98949.00;4962038;28;20058;-84
2020/12/23 08:31:14;;;;;;;9.32;8.10;;;;;;;9.08;68.00;98945.22;4943313;28;20047;-85
2020/12/23 08:33:41;;;;;;;14.38;8.43;;;;;;;9.05;67.29;98942.69;4969815;28;20050;-84
2020/12/23 08:36:08;;;;;;;7.97;7.07;;;;;;;9.13;67.88;98944.28;4967457;28;20093;-83
2020/12/23 08:38:46;;;;;;;10.20;7.82;;;;;;;8.61;69.34;98948.44;4961127;28;20061;-84
2020/12/23 08:41:18;;;;;;;9.82;7.70;;;;;;;9.01;68.41;98952.28;4965413;28;20120;-84
2020/12/23 08:43:50;;;;;;;10.63;8.93;;;;;;;8.67;69.20;98950.97;4962930;28;20050;-86
2020/12/23 08:46:21;;;;;;;17.07;9.00;;;;;;;8.37;70.58;98949.56;4966751;28;20038;-83
2020/12/23 08:48:52;;;;;;;11.93;8.57;;;;;;;9.15;68.00;98955.56;4945858;28;20380;-83
2020/12/23 08:51:19;;;;;;;12.23;9.38;;;;;;;9.07;68.80;98953.91;4956982;28;20169;-84
2020/12/23 08:53:51;;;;;;;11.60;8.90;;;;;;;9.11;68.25;98959.06;4967624;28;20066;-83
2020/12/23 08:56:32;;;;;;;17.98;8.98;;;;;;;9.08;67.87;98953.91;4980270;28;20054;-83
2020/12/23 08:59:06;;;;;;;9.80;8.32;;;;;;;9.37;67.88;98950.91;4963036;28;20526;-83
2020/12/23 09:01:35;;;;;;;8.82;7.20;;;;;;;9.71;66.50;98955.59;4982190;28;20060;-83
2020/12/23 09:04:09;;;;;;;9.75;7.45;;;;;;;9.76;66.44;98948.56;4984133;28;20534;-83
2020/12/23 09:06:39;;;;;;;9.00;7.35;;;;;;;9.64;66.52;98955.69;4977175;28;20141;-83
2020/12/23 09:09:11;;;;;;;7.60;6.38;;;;;;;9.95;65.66;98953.47;4949744;28;20042;-83
2020/12/23 09:11:54;;;;;;;7.25;5.85;;;;;;;9.70;66.42;98952.13;4979046;28;20050;-81
2020/12/23 09:14:27;;;;;;;9.02;5.80;;;;;;;9.04;67.98;98948.75;4975848;28;20054;-79
2020/12/23 09:16:56;;;;;;;6.78;6.07;;;;;;;9.30;67.54;98948.41;4978641;28;20938;-81
2020/12/23 09:19:45;;;;;;;7.28;6.57;;;;;;;9.17;68.24;98947.72;4969970;28;20141;-80
2020/12/23 09:22:27;;;;;;;9.52;5.88;;;;;;;9.30;68.14;98946.69;4961324;28;20056;-80
2020/12/23 09:25:17;;;;;;;7.25;6.28;;;;;;;9.43;67.79;98944.75;4980781;28;20148;-82
2020/12/23 09:27:54;;;;;;;7.57;6.32;;;;;;;9.85;66.60;98940.59;4953752;28;20058;-82
2020/12/23 09:30:42;;;;;;;11.90;6.90;;;;;;;9.42;67.95;98933.44;4963467;28;20035;-81
2020/12/23 09:33:38;;;;;;;6.78;5.95;;;;;;;9.67;67.08;98923.50;4979696;28;20043;-82
2020/12/23 09:36:06;;;;;;;8.45;7.05;;;;;;;9.02;69.76;98920.13;4949272;28;20054;-81
2020/12/23 09:38:34;;;;;;;59.10;9.48;;;;;;;8.55;71.14;98914.66;4965660;28;20043;-82
2020/12/23 09:41:09;;;;;;;12.63;7.38;;;;;;;8.37;71.76;98920.94;4965639;28;21886;-82
2020/12/23 09:43:37;;;;;;;10.30;8.07;;;;;;;9.15;69.77;98906.06;4961237;28;20046;-81
2020/12/23 09:46:09;;;;;;;13.25;8.20;;;;;;;8.94;70.66;98914.16;4964187;28;20157;-81
2020/12/23 09:48:37;;;;;;;12.32;8.73;;;;;;;9.54;68.66;98901.13;4960531;28;20041;-81
2020/12/23 09:51:06;;;;;;;12.45;8.02;;;;;;;9.23;69.50;98912.88;4949828;28;20108;-81
2020/12/23 09:53:33;;;;;;;14.38;7.68;;;;;;;9.24;69.38;98901.59;4949929;28;20500;-81
2020/12/23 09:56:00;;;;;;;9.02;7.95;;;;;;;9.57;68.71;98896.72;4968174;28;20058;-82
2020/12/23 09:58:29;;;;;;;21.52;7.25;;;;;;;8.75;70.78;98889.22;4949278;28;20039;-82
2020/12/23 10:00:55;;;;;;;9.63;6.78;;;;;;;8.95;70.37;98891.56;4962939;28;20046;-81
2020/12/23 10:03:22;;;;;;;10.00;7.25;;;;;;;8.94;71.25;98892.44;4944737;28;20047;-82
2020/12/23 10:05:49;;;;;;;9.32;7.80;;;;;;;9.15;70.59;98900.84;4977228;28;20047;-81
2020/12/23 10:08:16;;;;;;;11.05;7.50;;;;;;;9.47;69.21;98899.47;4966896;28;20073;-83
2020/12/23 10:10:43;;;;;;;13.50;8.25;;;;;;;8.09;73.24;98903.84;4964410;28;20379;-82
2020/12/23 10:13:10;;;;;;;28.83;7.93;;;;;;;8.54;72.59;98905.09;4963867;28;20422;-81
2020/12/23 10:15:39;;;;;;;10.27;8.10;;;;;;;8.77;72.67;98910.91;4967626;28;20911;-81
2020/12/23 10:18:06;;;;;;;9.30;8.32;;;;;;;8.97;70.75;98902.84;4964546;28;20047;-83
2020/12/23 10:20:33;;;;;;;12.52;7.88;;;;;;;9.52;70.01;98906.34;4964239;28;20457;-82
2020/12/23 10:23:05;;;;;;;37.33;9.85;;;;;;;9.05;70.94;98912.28;4950667;28;20066;-81
2020/12/23 10:25:34;;;;;;;11.20;8.52;;;;;;;8.84;71.90;98922.09;4946863;28;20063;-81
2020/12/23 10:28:01;;;;;;;12.70;8.48;;;;;;;9.57;69.42;98911.50;4968284;28;20049;-82
2020/12/23 10:30:27;;;;;;;14.18;8.77;;;;;;;9.22;70.03;98903.34;4979115;28;20043;-82
2020/12/23 10:33:09;;;;;;;8.75;6.90;;;;;;;8.86;71.47;98909.94;4969919;28;20482;-82
2020/12/23 10:35:35;;;;;;;13.35;7.85;;;;;;;9.03;71.75;98913.16;4946246;28;20438;-83
2020/12/23 10:38:03;;;;;;;12.15;7.60;;;;;;;8.94;72.04;98908.94;4961412;28;20058;-83
2020/12/23 10:40:29;;;;;;;15.45;7.00;;;;;;;8.85;72.10;98909.06;4958713;28;20050;-82
2020/12/23 10:42:56;;;;;;;9.00;6.95;;;;;;;9.28;70.05;98904.13;4963684;28;20038;-81
2020/12/23 10:45:22;;;;;;;9.93;6.85;;;;;;;9.73;69.57;98904.28;4964151;28;21939;-79
2020/12/23 10:47:48;;;;;;;8.02;6.05;;;;;;;9.72;69.24;98899.94;4966659;28;20077;-80
2020/12/23 10:50:15;;;;;;;9.18;6.03;;;;;;;8.98;71.41;98897.59;4963789;28;20046;-82
2020/12/23 10:52:42;;;;;;;7.07;5.43;;;;;;;9.22;70.45;98899.00;4952256;28;20045;-81
2020/12/23 10:55:08;;;;;;;20.08;6.60;;;;;;;9.11;71.39;98893.09;4968539;28;20066;-81
2020/12/23 10:57:38;;;;;;;5.45;4.60;;;;;;;8.98;71.02;98887.19;4967205;28;20388;-79
2020/12/23 11:00:09;;;;;;;8.10;5.45;;;;;;;9.11;71.55;98887.88;4968406;28;20045;-79
2020/12/23 11:02:35;;;;;;;7.18;5.75;;;;;;;9.38;70.46;98873.56;4967611;28;20383;-80
2020/12/23 11:05:02;;;;;;;5.97;4.32;;;;;;;9.02;71.34;98881.03;4963466;28;20051;-81
2020/12/23 11:07:29;;;;;;;5.90;4.55;;;;;;;9.03;71.75;98871.47;4966289;28;20117;-80
2020/12/23 11:10:14;;;;;;;10.15;4.78;;;;;;;9.08;71.17;98875.75;4967321;28;20030;-80
2020/12/23 11:12:41;;;;;;;5.95;3.53;;;;;;;8.81;72.17;98870.94;4971424;28;20046;-80
2020/12/23 11:15:07;;;;;;;7.70;3.95;;;;;;;8.94;72.21;98856.84;4964426;28;20545;-80
2020/12/23 11:17:34;;;;;;;5.47;4.43;;;;;;;9.03;72.47;98856.72;4947797;28;20057;-79
2020/12/23 11:20:01;;;;;;;7.95;4.45;;;;;;;9.45;70.92;98849.97;4968054;28;20054;-83
2020/12/23 11:22:27;;;;;;;5.10;3.33;;;;;;;9.08;71.85;98846.22;4968291;28;20051;-78
2020/12/23 11:25:04;;;;;;;7.05;4.50;;;;;;;9.69;69.92;98845.25;4958790;28;20562;-80
2020/12/23 11:27:33;;;;;;;7.77;4.53;;;;;;;9.19;71.35;98846.94;4968985;28;20051;-80
2020/12/23 11:30:00;;;;;;;5.10;4.35;;;;;;;9.38;71.45;98844.88;4953469;28;20080;-81
2020/12/23 11:32:27;;;;;;;7.03;4.28;;;;;;;8.75;73.17;98837.16;4966799;28;20043;-79
2020/12/23 11:34:54;;;;;;;5.65;4.50;;;;;;;9.23;71.85;98843.38;4976246;28;20051;-80
2020/12/23 11:37:20;;;;;;;6.00;4.50;;;;;;;9.76;69.81;98839.03;4968313;28;20042;-82
2020/12/23 11:39:46;;;;;;;8.02;5.25;;;;;;;9.61;69.42;98845.38;4961466;28;20094;-81